Map

Track Data

SID SEASON NUMBER BASIN SUBBASIN NAME ISO_TIME NATURE LAT LON WMO_WIND WMO_PRES WMO_AGENCY TRACK_TYPE DIST2LAND LANDFALL IFLAG USA_AGENCY USA_ATCF_ID USA_LAT USA_LON USA_RECORD USA_STATUS USA_WIND USA_PRES USA_SSHS USA_R34_NE USA_R34_SE USA_R34_SW USA_R34_NW USA_R50_NE USA_R50_SE USA_R50_SW USA_R50_NW USA_R64_NE USA_R64_SE USA_R64_SW USA_R64_NW USA_POCI USA_ROCI USA_RMW USA_EYE TOKYO_LAT TOKYO_LON TOKYO_GRADE TOKYO_WIND TOKYO_PRES TOKYO_R50_DIR TOKYO_R50_LONG TOKYO_R50_SHORT TOKYO_R30_DIR TOKYO_R30_LONG TOKYO_R30_SHORT TOKYO_LAND CMA_LAT CMA_LON CMA_CAT CMA_WIND CMA_PRES HKO_LAT HKO_LON HKO_CAT HKO_WIND HKO_PRES NEWDELHI_LAT NEWDELHI_LON NEWDELHI_GRADE NEWDELHI_WIND NEWDELHI_PRES NEWDELHI_CI NEWDELHI_DP NEWDELHI_POCI REUNION_LAT REUNION_LON REUNION_TYPE REUNION_WIND REUNION_PRES REUNION_TNUM REUNION_CI REUNION_RMW REUNION_R34_NE REUNION_R34_SE REUNION_R34_SW REUNION_R34_NW REUNION_R50_NE REUNION_R50_SE REUNION_R50_SW REUNION_R50_NW REUNION_R64_NE REUNION_R64_SE REUNION_R64_SW REUNION_R64_NW BOM_LAT BOM_LON BOM_TYPE BOM_WIND BOM_PRES BOM_TNUM BOM_CI BOM_RMW BOM_R34_NE BOM_R34_SE BOM_R34_SW BOM_R34_NW BOM_R50_NE BOM_R50_SE BOM_R50_SW BOM_R50_NW BOM_R64_NE BOM_R64_SE BOM_R64_SW BOM_R64_NW BOM_ROCI BOM_POCI BOM_EYE BOM_POS_METHOD BOM_PRES_METHOD NADI_LAT NADI_LON NADI_CAT NADI_WIND NADI_PRES WELLINGTON_LAT WELLINGTON_LON WELLINGTON_WIND WELLINGTON_PRES DS824_LAT DS824_LON DS824_STAGE DS824_WIND DS824_PRES TD9636_LAT TD9636_LON TD9636_STAGE TD9636_WIND TD9636_PRES TD9635_LAT TD9635_LON TD9635_WIND TD9635_PRES TD9635_ROCI NEUMANN_LAT NEUMANN_LON NEUMANN_CLASS NEUMANN_WIND NEUMANN_PRES MLC_LAT MLC_LON MLC_CLASS MLC_WIND MLC_PRES USA_GUST BOM_GUST BOM_GUST_PER REUNION_GUST REUNION_GUST_PER USA_SEAHGT USA_SEARAD_NE USA_SEARAD_SE USA_SEARAD_SW USA_SEARAD_NW STORM_SPEED STORM_DIR
1949233N21299 1949 58 NA NA NOT_NAMED 1949-08-21 00:00:00 TS 21.2000 -61.5000 55 hurdat_atl main 531 489 O_____________ hurdat_atl AL011949 21.2000 -61.5000 TS 55 0 17 294
1949233N21299 1949 58 NA NA NOT_NAMED 1949-08-21 03:00:00 TS 21.5509 -62.3492 main 496 461 P_____________ AL011949 21.5509 -62.3492 TS 57 0 17 294
1949233N21299 1949 58 NA NA NOT_NAMED 1949-08-21 06:00:00 TS 21.9000 -63.2000 60 hurdat_atl main 464 454 O_____________ hurdat_atl AL011949 21.9000 -63.2000 TS 60 0 17 294
1949233N21299 1949 58 NA NA NOT_NAMED 1949-08-21 09:00:00 TS 22.2496 -64.0504 main 452 452 P_____________ AL011949 22.2496 -64.0504 TS 62 0 17 294
1949233N21299 1949 58 NA NA NOT_NAMED 1949-08-21 12:00:00 TS 22.6000 -64.9000 65 hurdat_atl main 475 473 O_____________ hurdat_atl AL011949 22.6000 -64.9000 HU 65 1 17 294
1949233N21299 1949 58 NA NA NOT_NAMED 1949-08-21 15:00:00 TS 22.9495 -65.7504 main 503 503 P_____________ AL011949 22.9495 -65.7504 HU 67 1 17 294
1949233N21299 1949 58 NA NA NOT_NAMED 1949-08-21 18:00:00 TS 23.3000 -66.6000 70 993 hurdat_atl main 527 517 O_____________ hurdat_atl AL011949 23.3000 -66.6000 HU 70 993 1 17 294
1949233N21299 1949 58 NA NA NOT_NAMED 1949-08-21 21:00:00 TS 23.6495 -67.4505 main 515 515 P_____________ AL011949 23.6495 -67.4505 HU 72 1 17 294
1949233N21299 1949 58 NA NA NOT_NAMED 1949-08-22 00:00:00 TS 24.0000 -68.3000 75 hurdat_atl main 522 518 O_____________ hurdat_atl AL011949 24.0000 -68.3000 HU 75 1 17 294
1949233N21299 1949 58 NA NA NOT_NAMED 1949-08-22 03:00:00 TS 24.3496 -69.1579 main 521 495 P_____________ AL011949 24.3496 -69.1579 HU 75 1 17 294
1949233N21299 1949 58 NA NA NOT_NAMED 1949-08-22 06:00:00 TS 24.7000 -70.0000 75 hurdat_atl main 497 480 O_____________ hurdat_atl AL011949 24.7000 -70.0000 HU 75 1 17 295
1949233N21299 1949 58 NA NA NOT_NAMED 1949-08-22 09:00:00 TS 25.0421 -70.8156 main 480 479 P_____________ AL011949 25.0421 -70.8156 HU 77 1 16 296
1949233N21299 1949 58 NA NA NOT_NAMED 1949-08-22 12:00:00 TS 25.4000 -71.6000 80 984 hurdat_atl main 490 487 O_____________ hurdat_atl AL011949 25.4000 -71.6000 HU 80 984 1 16 297
1949233N21299 1949 58 NA NA NOT_NAMED 1949-08-22 15:00:00 TS 25.7773 -72.3804 main 517 499 P_____________ AL011949 25.7773 -72.3804 HU 82 979 1 16 301
1949233N21299 1949 58 NA NA NOT_NAMED 1949-08-22 18:00:00 TS 26.2000 -73.1000 85 974 hurdat_atl main 499 461 O_____________ hurdat_atl AL011949 26.2000 -73.1000 HU 85 974 2 15 307
1949233N21299 1949 58 NA NA NOT_NAMED 1949-08-22 21:00:00 TS 26.6846 -73.7378 main 465 437 P_____________ AL011949 26.6846 -73.7378 HU 85 2 15 313
1949233N21299 1949 58 NA NA NOT_NAMED 1949-08-23 00:00:00 TS 27.2000 -74.3000 85 hurdat_atl main 437 423 O_____________ hurdat_atl AL011949 27.2000 -74.3000 HU 85 2 14 316
1949233N21299 1949 58 NA NA NOT_NAMED 1949-08-23 03:00:00 TS 27.6998 -74.8304 main 430 423 P_____________ AL011949 27.6998 -74.8304 HU 85 2 13 318
1949233N21299 1949 58 NA NA NOT_NAMED 1949-08-23 06:00:00 TS 28.2000 -75.3000 85 hurdat_atl main 437 437 O_____________ hurdat_atl AL011949 28.2000 -75.3000 HU 85 2 13 321
1949233N21299 1949 58 NA NA NOT_NAMED 1949-08-23 09:00:00 TS 28.6999 -75.7378 main 462 433 P_____________ AL011949 28.6999 -75.7378 HU 87 2 12 325
1949233N21299 1949 58 NA NA NOT_NAMED 1949-08-23 12:00:00 TS 29.2000 -76.1000 90 hurdat_atl main 435 416 O_____________ hurdat_atl AL011949 29.2000 -76.1000 HU 90 2 11 329
1949233N21299 1949 58 NA NA NOT_NAMED 1949-08-23 15:00:00 TS 29.6774 -76.4027 main 419 409 P_____________ AL011949 29.6774 -76.4027 HU 90 2 11 336
1949233N21299 1949 58 NA NA NOT_NAMED 1949-08-23 18:00:00 TS 30.2000 -76.6000 90 hurdat_atl main 409 353 O_____________ hurdat_atl AL011949 30.2000 -76.6000 HU 90 2 12 347
1949233N21299 1949 58 NA NA NOT_NAMED 1949-08-23 21:00:00 TS 30.8199 -76.6952 main 353 293 P_____________ AL011949 30.8199 -76.6952 HU 92 2 13 356
1949233N21299 1949 58 NA NA NOT_NAMED 1949-08-24 00:00:00 TS 31.5000 -76.7000 95 hurdat_atl main 293 224 O_____________ hurdat_atl AL011949 31.5000 -76.7000 HU 95 2 14 0
1949233N21299 1949 58 NA NA NOT_NAMED 1949-08-24 03:00:00 TS 32.1924 -76.6945 main 224 171 P_____________ AL011949 32.1924 -76.6945 HU 95 2 14 4
1949233N21299 1949 58 NA NA NOT_NAMED 1949-08-24 06:00:00 TS 32.9000 -76.6000 95 hurdat_atl main 171 122 O_____________ hurdat_atl AL011949 32.9000 -76.6000 HU 95 2 14 8
1949233N21299 1949 58 NA NA NOT_NAMED 1949-08-24 09:00:00 TS 33.5992 -76.4607 main 122 57 P_____________ AL011949 33.5992 -76.4607 HU 92 2 15 17
1949233N21299 1949 58 NA NA NOT_NAMED 1949-08-24 12:00:00 TS 34.3000 -76.1000 90 977 hurdat_atl main 57 49 O_____________ hurdat_atl AL011949 34.3000 -76.1000 HU 90 977 2 16 30
1949233N21299 1949 58 NA NA NOT_NAMED 1949-08-24 15:00:00 TS 35.0285 -75.4721 main 69 56 P_____________ AL011949 35.0285 -75.4721 HU 90 2 19 43
1949233N21299 1949 58 NA NA NOT_NAMED 1949-08-24 18:00:00 TS 35.7000 -74.5000 90 hurdat_atl main 90 90 O_____________ hurdat_atl AL011949 35.7000 -74.5000 HU 90 2 22 56
1949233N21299 1949 58 NA NA NOT_NAMED 1949-08-24 21:00:00 TS 36.2499 -73.2783 main 202 202 P_____________ AL011949 36.2499 -73.2783 HU 87 2 25 66
1949233N21299 1949 58 NA NA NOT_NAMED 1949-08-25 00:00:00 TS 36.7000 -71.7000 85 hurdat_atl main 348 348 O_____________ hurdat_atl AL011949 36.7000 -71.7000 HU 85 2 28 73
1949233N21299 1949 58 NA NA NOT_NAMED 1949-08-25 03:00:00 TS 37.0548 -69.9628 main 459 459 P_____________ AL011949 37.0548 -69.9628 HU 85 2 33 78
1949233N21299 1949 58 NA NA NOT_NAMED 1949-08-25 06:00:00 TS 37.4000 -67.7000 85 hurdat_atl main 517 517 O_____________ hurdat_atl AL011949 37.4000 -67.7000 HU 85 2 44 81
1949233N21299 1949 58 NA NA NOT_NAMED 1949-08-25 09:00:00 TS 37.7618 -64.5421 main 637 637 P_____________ AL011949 37.7618 -64.5421 HU 82 1 51 81
1949233N21299 1949 58 NA NA NOT_NAMED 1949-08-25 12:00:00 ET 38.2000 -61.3000 80 963 hurdat_atl main 678 678 O_____________ hurdat_atl AL011949 38.2000 -61.3000 EX 80 963 -4 47 77
1949233N21299 1949 58 NA NA NOT_NAMED 1949-08-25 15:00:00 ET 38.8258 -58.7244 main 737 715 P_____________ AL011949 38.8258 -58.7244 EX 77 -4 38 69
1949233N21299 1949 58 NA NA NOT_NAMED 1949-08-25 18:00:00 ET 39.6000 -56.7000 75 hurdat_atl main 719 701 O_____________ hurdat_atl AL011949 39.6000 -56.7000 EX 75 -4 32 60
1949233N21299 1949 58 NA NA NOT_NAMED 1949-08-25 21:00:00 ET 40.4209 -55.1583 main 701 590 P_____________ AL011949 40.4209 -55.1583 EX 72 -4 27 50
1949233N21299 1949 58 NA NA NOT_NAMED 1949-08-26 00:00:00 ET 41.3000 -54.0000 70 hurdat_atl main 590 500 O_____________ hurdat_atl AL011949 41.3000 -54.0000 EX 70 -4 24 45
1949233N21299 1949 58 NA NA NOT_NAMED 1949-08-26 03:00:00 ET 42.1480 -52.8862 main 500 411 P_____________ AL011949 42.1480 -52.8862 EX 67 -4 23 42
1949233N21299 1949 58 NA NA NOT_NAMED 1949-08-26 06:00:00 ET 43.0000 -51.9000 65 hurdat_atl main 412 351 O_____________ hurdat_atl AL011949 43.0000 -51.9000 EX 65 -4 22 39
1949233N21299 1949 58 NA NA NOT_NAMED 1949-08-26 09:00:00 ET 43.8701 -50.9760 main 345 319 P_____________ AL011949 43.8701 -50.9760 EX 65 -4 22 39
1949233N21299 1949 58 NA NA NOT_NAMED 1949-08-26 12:00:00 ET 44.7000 -50.0000 65 hurdat_atl main 325 323 O_____________ hurdat_atl AL011949 44.7000 -50.0000 EX 65 -4 22 45
1949233N21299 1949 58 NA NA NOT_NAMED 1949-08-26 15:00:00 ET 45.4300 -48.7928 main 357 357 P_____________ AL011949 45.4300 -48.7928 EX 62 -4 22 51
1949233N21299 1949 58 NA NA NOT_NAMED 1949-08-26 18:00:00 ET 46.1000 -47.5000 60 hurdat_atl main 416 416 O_____________ hurdat_atl AL011949 46.1000 -47.5000 EX 60 -4 22 54
1949233N21299 1949 58 NA NA NOT_NAMED 1949-08-26 21:00:00 ET 46.7187 -46.2438 main 490 487 P_____________ AL011949 46.7187 -46.2438 EX 60 -4 21 53
1949233N21299 1949 58 NA NA NOT_NAMED 1949-08-27 00:00:00 ET 47.4000 -45.0000 60 hurdat_atl main 568 568 O_____________ hurdat_atl AL011949 47.4000 -45.0000 EX 60 -4 23 48
1949233N21299 1949 58 NA NA NOT_NAMED 1949-08-27 03:00:00 ET 48.2463 -43.7471 main 665 665 P_____________ AL011949 48.2463 -43.7471 EX 57 -4 24 43
1949233N21299 1949 58 NA NA NOT_NAMED 1949-08-27 06:00:00 ET 49.2000 -42.5000 55 hurdat_atl main 762 762 O_____________ hurdat_atl AL011949 49.2000 -42.5000 EX 55 -4 26 40
1949233N21299 1949 58 NA NA NOT_NAMED 1949-08-27 09:00:00 ET 50.2143 -41.2272 main 870 870 P_____________ AL011949 50.2143 -41.2272 EX 52 -4 26 39
1949233N21299 1949 58 NA NA NOT_NAMED 1949-08-27 12:00:00 ET 51.2000 -40.0000 50 hurdat_atl main 973 931 O_____________ hurdat_atl AL011949 51.2000 -40.0000 EX 50 -4 23 39
1949233N21299 1949 58 NA NA NOT_NAMED 1949-08-27 15:00:00 ET 52.0434 -38.8641 main 933 868 P_____________ AL011949 52.0434 -38.8641 EX 50 -4 21 40
1949233N21299 1949 58 NA NA NOT_NAMED 1949-08-27 18:00:00 ET 52.8000 -37.8000 50 hurdat_atl main 870 830 O_____________ hurdat_atl AL011949 52.8000 -37.8000 EX 50 -4 19 41
1949233N21299 1949 58 NA NA NOT_NAMED 1949-08-27 21:00:00 ET 53.4827 -36.7775 main 823 785 P_____________ AL011949 53.4827 -36.7775 EX 50 -4 19 42
1949233N21299 1949 58 NA NA NOT_NAMED 1949-08-28 00:00:00 ET 54.2000 -35.7000 50 hurdat_atl main 788 755 O_____________ hurdat_atl AL011949 54.2000 -35.7000 EX 50 -4 21 41
1949233N21299 1949 58 NA NA NOT_NAMED 1949-08-28 03:00:00 ET 55.0544 -34.4135 main 755 741 P_____________ AL011949 55.0544 -34.4135 EX 47 -4 24 41
1949233N21299 1949 58 NA NA NOT_NAMED 1949-08-28 06:00:00 ET 56.0000 -33.0000 45 hurdat_atl main 743 738 O_____________ hurdat_atl AL011949 56.0000 -33.0000 EX 45 -4 25 40
1949233N21299 1949 58 NA NA NOT_NAMED 1949-08-28 09:00:00 ET 56.9851 -31.4904 main 750 750 P_____________ AL011949 56.9851 -31.4904 EX 42 -4 26 39
1949233N21299 1949 58 NA NA NOT_NAMED 1949-08-28 12:00:00 ET 58.0000 -30.0000 40 hurdat_atl main 751 617 O_____________ hurdat_atl AL011949 58.0000 -30.0000 EX 40 -4 25 36
1949233N21299 1949 58 NA NA NOT_NAMED 1949-08-28 15:00:00 ET 59.0349 -28.6713 main 617 488 P_____________ AL011949 59.0349 -28.6713 EX 40 -4 24 34
1949233N21299 1949 58 NA NA NOT_NAMED 1949-08-28 18:00:00 ET 60.0000 -27.4000 40 hurdat_atl main 485 374 O_____________ hurdat_atl AL011949 60.0000 -27.4000 EX 40 -4 22 37
1949233N21299 1949 58 NA NA NOT_NAMED 1949-08-28 21:00:00 ET 60.7935 -26.0552 main 374 275 P_____________ AL011949 60.7935 -26.0552 EX 45 -4 20 41
1949233N21299 1949 58 NA NA NOT_NAMED 1949-08-29 00:00:00 ET 61.5000 -24.7000 50 hurdat_atl main 273 180 O_____________ hurdat_atl AL011949 61.5000 -24.7000 EX 50 -4 19 42
1949233N21299 1949 58 NA NA NOT_NAMED 1949-08-29 03:00:00 ET 62.2285 -23.3108 main 179 99 P_____________ AL011949 62.2285 -23.3108 EX 47 -4 19 43
1949233N21299 1949 58 NA NA NOT_NAMED 1949-08-29 06:00:00 ET 62.9000 -21.9000 45 hurdat_atl main 99 18 O_____________ hurdat_atl AL011949 62.9000 -21.9000 EX 45 -4 18 46
1949233N21299 1949 58 NA NA NOT_NAMED 1949-08-29 09:00:00 ET 63.4785 -20.4573 main 14 0 P_____________ AL011949 63.4785 -20.4573 EX 42 -4 17 50
1949233N21299 1949 58 NA NA NOT_NAMED 1949-08-29 12:00:00 ET 64.0000 -19.0000 40 hurdat_atl main 0 0 O_____________ hurdat_atl AL011949 64.0000 -19.0000 EX 40 -4 16 52
1949233N21299 1949 58 NA NA NOT_NAMED 1949-08-29 15:00:00 ET 64.5062 -17.5013 main 0 0 P_____________ AL011949 64.5062 -17.5013 EX 40 -4 16 52
1949233N21299 1949 58 NA NA NOT_NAMED 1949-08-29 18:00:00 ET 65.0000 -16.0000 40 hurdat_atl main 0 0 O_____________ hurdat_atl AL011949 65.0000 -16.0000 EX 40 -4 16 52
1949233N21299 1949 58 NA NA NOT_NAMED 1949-08-29 21:00:00 ET 65.5003 -14.5096 main 0 0 P_____________ AL011949 65.5003 -14.5096 EX 37 -4 16 51
1949233N21299 1949 58 NA NA NOT_NAMED 1949-08-30 00:00:00 ET 66.0000 -13.0000 35 hurdat_atl main 66 O_____________ hurdat_atl AL011949 66.0000 -13.0000 EX 35 -4 16 51

About IBTrACS Database

This database is a web-friendly format of International Best Track Archive for Climate Stewardship (IBTrACS), a global best track data archive curated by NOAA dating back to 1842.

Updated: 2021-10-21